RPA432 KORD-KCMH
Flight info
| Callsign | RPA432 |
|---|---|
| Flight time | 0h 46m |
| Altitude | 33000 |
| Route | MOBLE ADIME SEWTO FWA BRYEN DUBLN1 |
| Aircraft | CRJ7/M-SDFGIRWY/S |
Departure
| Time | 2026-05-09 01:08 |
|---|---|
| Airport | Chicago O'Hare International Airport (KORD) |
Arrival
| Time | 2026-05-09 01:55 |
|---|---|
| Airport | John Glenn Columbus International Airport (KCMH) |
| Time | Latitude | Longitude | Altitude | Speed | Heading |
|---|---|---|---|---|---|
| 2026-05-09 00:26 | 41.97837 | -87.90766 | 669 ft | 0 kts | 101° |
| 2026-05-09 00:32 | 41.97884 | -87.90754 | 669 ft | 0 kts | 101° |
| 2026-05-09 00:47 | 41.97886 | -87.90766 | 669 ft | 4 kts | 103° |
| 2026-05-09 00:47 | 41.97896 | -87.90798 | 669 ft | 4 kts | 126° |
| 2026-05-09 00:47 | 41.97915 | -87.90813 | 669 ft | 3 kts | 183° |
| 2026-05-09 00:47 | 41.97919 | -87.90813 | 669 ft | 1 kts | 188° |
| 2026-05-09 00:53 | 41.97911 | -87.90814 | 669 ft | 5 kts | 188° |
| 2026-05-09 00:53 | 41.97872 | -87.90822 | 669 ft | 8 kts | 190° |
| 2026-05-09 00:53 | 41.97816 | -87.90838 | 669 ft | 9 kts | 191° |
| 2026-05-09 00:54 | 41.97752 | -87.90852 | 669 ft | 10 kts | 191° |
| 2026-05-09 00:54 | 41.97686 | -87.90870 | 669 ft | 5 kts | 191° |
| 2026-05-09 00:54 | 41.97652 | -87.90879 | 669 ft | 5 kts | 192° |
| 2026-05-09 00:54 | 41.97603 | -87.90893 | 669 ft | 9 kts | 192° |
| 2026-05-09 00:55 | 41.97552 | -87.90941 | 669 ft | 10 kts | 246° |
| 2026-05-09 00:55 | 41.97526 | -87.91030 | 669 ft | 10 kts | 249° |
| 2026-05-09 00:55 | 41.97476 | -87.91053 | 669 ft | 8 kts | 150° |
| 2026-05-09 00:55 | 41.97441 | -87.91017 | 669 ft | 7 kts | 136° |
| 2026-05-09 00:56 | 41.97400 | -87.90964 | 669 ft | 10 kts | 136° |
| 2026-05-09 00:56 | 41.97343 | -87.90890 | 669 ft | 12 kts | 135° |
| 2026-05-09 00:56 | 41.97283 | -87.90805 | 669 ft | 10 kts | 132° |
| 2026-05-09 00:56 | 41.97236 | -87.90761 | 669 ft | 8 kts | 178° |
| 2026-05-09 00:57 | 41.97191 | -87.90790 | 669 ft | 7 kts | 262° |
| 2026-05-09 00:57 | 41.97209 | -87.90841 | 669 ft | 2 kts | 309° |
| 2026-05-09 00:57 | 41.97208 | -87.90890 | 668 ft | 18 kts | 265° |
| 2026-05-09 00:57 | 41.97230 | -87.91021 | 669 ft | 12 kts | 292° |
| 2026-05-09 00:58 | 41.97248 | -87.91146 | 669 ft | 14 kts | 253° |
| 2026-05-09 00:58 | 41.97200 | -87.91237 | 669 ft | 15 kts | 226° |
| 2026-05-09 00:58 | 41.97149 | -87.91371 | 669 ft | 18 kts | 263° |
| 2026-05-09 00:58 | 41.97147 | -87.91552 | 669 ft | 20 kts | 271° |
| 2026-05-09 00:59 | 41.97149 | -87.91743 | 669 ft | 20 kts | 272° |
| 2026-05-09 00:59 | 41.97154 | -87.91898 | 669 ft | 17 kts | 272° |
| 2026-05-09 00:59 | 41.97154 | -87.92037 | 669 ft | 10 kts | 265° |
| 2026-05-09 00:59 | 41.97106 | -87.92082 | 669 ft | 10 kts | 185° |
| 2026-05-09 01:00 | 41.97035 | -87.92083 | 669 ft | 10 kts | 180° |
| 2026-05-09 01:00 | 41.97015 | -87.92083 | 670 ft | 0 kts | 180° |
| 2026-05-09 01:06 | 41.97002 | -87.92084 | 670 ft | 5 kts | 181° |
| 2026-05-09 01:06 | 41.96958 | -87.92085 | 671 ft | 7 kts | 180° |
| 2026-05-09 01:07 | 41.96906 | -87.92062 | 671 ft | 8 kts | 112° |
| 2026-05-09 01:07 | 41.96902 | -87.92021 | 671 ft | 0 kts | 86° |
| 2026-05-09 01:07 | 41.96902 | -87.91984 | 671 ft | 19 kts | 89° |
| 2026-05-09 01:07 | 41.96902 | -87.91418 | 672 ft | 102 kts | 90° |
| 2026-05-09 01:08 | 41.96910 | -87.90185 | 848 ft | 148 kts | 86° |
| 2026-05-09 01:08 | 41.96877 | -87.88728 | 1464 ft | 164 kts | 99° |
| 2026-05-09 01:08 | 41.96555 | -87.87162 | 2128 ft | 184 kts | 105° |
| 2026-05-09 01:08 | 41.96221 | -87.85443 | 2949 ft | 192 kts | 104° |
| 2026-05-09 01:09 | 41.95840 | -87.83686 | 3783 ft | 202 kts | 106° |
| 2026-05-09 01:09 | 41.95409 | -87.81806 | 4440 ft | 225 kts | 106° |
| 2026-05-09 01:09 | 41.94899 | -87.79561 | 4466 ft | 277 kts | 107° |
| 2026-05-09 01:09 | 41.94314 | -87.76932 | 5018 ft | 299 kts | 107° |
| 2026-05-09 01:10 | 41.93857 | -87.74255 | 6285 ft | 289 kts | 94° |
| 2026-05-09 01:10 | 41.93792 | -87.71545 | 7213 ft | 292 kts | 90° |
| 2026-05-09 01:10 | 41.93790 | -87.68798 | 8083 ft | 297 kts | 88° |
| 2026-05-09 01:10 | 41.93819 | -87.66034 | 8902 ft | 302 kts | 87° |
| 2026-05-09 01:11 | 41.93874 | -87.63170 | 9556 ft | 315 kts | 86° |
| 2026-05-09 01:11 | 41.93959 | -87.60145 | 9826 ft | 336 kts | 86° |
| 2026-05-09 01:11 | 41.94078 | -87.56903 | 9949 ft | 354 kts | 85° |
| 2026-05-09 01:11 | 41.94211 | -87.53591 | 10004 ft | 355 kts | 85° |
| 2026-05-09 01:12 | 41.94316 | -87.50268 | 10024 ft | 356 kts | 86° |
| 2026-05-09 01:12 | 41.94367 | -87.46942 | 10060 ft | 355 kts | 88° |
| 2026-05-09 01:12 | 41.94391 | -87.43644 | 10079 ft | 345 kts | 88° |
| 2026-05-09 01:12 | 41.94389 | -87.40463 | 10677 ft | 342 kts | 89° |
| 2026-05-09 01:13 | 41.94375 | -87.38332 | 11116 ft | 346 kts | 89° |
| 2026-05-09 01:13 | 41.94376 | -87.35067 | 11811 ft | 353 kts | 88° |
| 2026-05-09 01:13 | 41.94398 | -87.31758 | 12534 ft | 357 kts | 88° |
| 2026-05-09 01:13 | 41.94418 | -87.28364 | 13110 ft | 371 kts | 88° |
| 2026-05-09 01:14 | 41.94435 | -87.24913 | 13936 ft | 368 kts | 88° |
| 2026-05-09 01:14 | 41.94453 | -87.21456 | 14784 ft | 372 kts | 89° |
| 2026-05-09 01:14 | 41.94471 | -87.17953 | 15559 ft | 378 kts | 89° |
| 2026-05-09 01:14 | 41.94488 | -87.14389 | 16304 ft | 384 kts | 89° |
| 2026-05-09 01:15 | 41.94469 | -87.10778 | 17005 ft | 390 kts | 94° |
| 2026-05-09 01:15 | 41.93807 | -87.07231 | 17669 ft | 394 kts | 116° |
| 2026-05-09 01:15 | 41.92433 | -87.04041 | 18293 ft | 396 kts | 126° |
| 2026-05-09 01:15 | 41.90871 | -87.00965 | 18851 ft | 401 kts | 127° |
| 2026-05-09 01:16 | 41.89289 | -86.97861 | 19385 ft | 405 kts | 127° |
| 2026-05-09 01:16 | 41.87780 | -86.94701 | 19904 ft | 410 kts | 124° |
| 2026-05-09 01:16 | 41.86291 | -86.91396 | 20383 ft | 416 kts | 124° |
| 2026-05-09 01:17 | 41.83252 | -86.84713 | 21345 ft | 423 kts | 125° |
| 2026-05-09 01:17 | 41.81704 | -86.81337 | 21810 ft | 427 kts | 125° |
| 2026-05-09 01:17 | 41.80140 | -86.77929 | 22314 ft | 431 kts | 126° |
| 2026-05-09 01:17 | 41.78560 | -86.74490 | 22807 ft | 435 kts | 126° |
| 2026-05-09 01:18 | 41.76963 | -86.71018 | 23284 ft | 439 kts | 126° |
| 2026-05-09 01:18 | 41.75362 | -86.67537 | 23690 ft | 434 kts | 126° |
| 2026-05-09 01:18 | 41.73772 | -86.64097 | 24048 ft | 436 kts | 127° |
| 2026-05-09 01:18 | 41.72169 | -86.60626 | 24437 ft | 439 kts | 127° |
| 2026-05-09 01:19 | 41.70558 | -86.57142 | 24853 ft | 442 kts | 127° |
| 2026-05-09 01:19 | 41.68927 | -86.53625 | 25220 ft | 446 kts | 127° |
| 2026-05-09 01:19 | 41.67287 | -86.50086 | 25608 ft | 449 kts | 128° |
| 2026-05-09 01:19 | 41.65639 | -86.46530 | 25980 ft | 451 kts | 128° |
| 2026-05-09 01:20 | 41.63996 | -86.42994 | 26335 ft | 454 kts | 128° |
| 2026-05-09 01:20 | 41.62326 | -86.39397 | 26689 ft | 456 kts | 128° |
| 2026-05-09 01:20 | 41.60641 | -86.35781 | 27024 ft | 459 kts | 128° |
| 2026-05-09 01:20 | 41.58952 | -86.32151 | 27328 ft | 461 kts | 129° |
| 2026-05-09 01:21 | 41.57249 | -86.28504 | 27610 ft | 464 kts | 129° |
| 2026-05-09 01:21 | 41.55551 | -86.24868 | 27859 ft | 466 kts | 129° |
| 2026-05-09 01:21 | 41.53835 | -86.21194 | 28092 ft | 467 kts | 129° |
| 2026-05-09 01:21 | 41.52111 | -86.17512 | 28322 ft | 469 kts | 129° |
| 2026-05-09 01:22 | 41.50377 | -86.13812 | 28482 ft | 471 kts | 129° |
| 2026-05-09 01:22 | 41.48631 | -86.10098 | 28567 ft | 475 kts | 129° |
| 2026-05-09 01:22 | 41.45127 | -86.02633 | 28300 ft | 479 kts | 129° |
| 2026-05-09 01:23 | 41.43320 | -85.98788 | 27701 ft | 501 kts | 128° |
| 2026-05-09 01:23 | 41.41437 | -85.94774 | 27142 ft | 515 kts | 128° |
| 2026-05-09 01:23 | 41.39566 | -85.90779 | 26584 ft | 501 kts | 128° |
| 2026-05-09 01:23 | 41.37716 | -85.86869 | 26174 ft | 496 kts | 128° |
| 2026-05-09 01:24 | 41.35880 | -85.82989 | 25995 ft | 495 kts | 128° |
| 2026-05-09 01:24 | 41.34048 | -85.79125 | 25917 ft | 493 kts | 128° |
| 2026-05-09 01:24 | 41.32216 | -85.75264 | 25880 ft | 493 kts | 128° |
| 2026-05-09 01:24 | 41.30407 | -85.71448 | 25867 ft | 493 kts | 128° |
| 2026-05-09 01:25 | 41.28549 | -85.67547 | 25863 ft | 493 kts | 128° |
| 2026-05-09 01:25 | 41.26744 | -85.63749 | 25861 ft | 492 kts | 128° |
| 2026-05-09 01:25 | 41.24911 | -85.59907 | 25842 ft | 492 kts | 128° |
| 2026-05-09 01:25 | 41.23081 | -85.56071 | 25853 ft | 491 kts | 128° |
| 2026-05-09 01:26 | 41.21249 | -85.52239 | 25856 ft | 490 kts | 128° |
| 2026-05-09 01:26 | 41.19422 | -85.48418 | 25857 ft | 490 kts | 128° |
| 2026-05-09 01:26 | 41.17590 | -85.44596 | 25864 ft | 490 kts | 128° |
| 2026-05-09 01:26 | 41.15756 | -85.40773 | 25596 ft | 495 kts | 128° |
| 2026-05-09 01:27 | 41.13926 | -85.36953 | 25067 ft | 487 kts | 128° |
| 2026-05-09 01:27 | 41.12112 | -85.33184 | 24540 ft | 482 kts | 128° |
| 2026-05-09 01:27 | 41.10315 | -85.29445 | 24029 ft | 478 kts | 128° |
| 2026-05-09 01:27 | 41.08535 | -85.25751 | 23519 ft | 474 kts | 128° |
| 2026-05-09 01:28 | 41.06770 | -85.22090 | 23140 ft | 467 kts | 127° |
| 2026-05-09 01:28 | 41.05019 | -85.18463 | 22989 ft | 467 kts | 128° |
| 2026-05-09 01:28 | 41.03267 | -85.14839 | 22914 ft | 466 kts | 127° |
| 2026-05-09 01:28 | 41.01524 | -85.11232 | 22878 ft | 464 kts | 128° |
| 2026-05-09 01:29 | 40.99779 | -85.07639 | 22874 ft | 462 kts | 128° |
| 2026-05-09 01:29 | 40.98067 | -85.04112 | 22874 ft | 461 kts | 128° |
| 2026-05-09 01:29 | 40.96325 | -85.00534 | 22873 ft | 463 kts | 128° |
| 2026-05-09 01:29 | 40.94580 | -84.96942 | 22876 ft | 465 kts | 128° |
| 2026-05-09 01:30 | 40.92826 | -84.93343 | 22877 ft | 467 kts | 128° |
| 2026-05-09 01:30 | 40.91061 | -84.89725 | 22879 ft | 468 kts | 128° |
| 2026-05-09 01:30 | 40.89301 | -84.86113 | 22877 ft | 465 kts | 128° |
| 2026-05-09 01:30 | 40.87540 | -84.82532 | 22875 ft | 464 kts | 128° |
| 2026-05-09 01:31 | 40.85789 | -84.78941 | 22872 ft | 465 kts | 126° |
| 2026-05-09 01:31 | 40.84301 | -84.75129 | 22868 ft | 470 kts | 117° |
| 2026-05-09 01:31 | 40.83094 | -84.71101 | 22869 ft | 472 kts | 114° |
| 2026-05-09 01:31 | 40.81956 | -84.67035 | 22871 ft | 472 kts | 114° |
| 2026-05-09 01:32 | 40.80798 | -84.62991 | 22870 ft | 471 kts | 115° |
| 2026-05-09 01:32 | 40.79564 | -84.58981 | 22698 ft | 474 kts | 116° |
| 2026-05-09 01:32 | 40.78265 | -84.54909 | 22108 ft | 488 kts | 116° |
| 2026-05-09 01:32 | 40.76945 | -84.50816 | 21540 ft | 477 kts | 116° |
| 2026-05-09 01:33 | 40.75691 | -84.46820 | 20961 ft | 465 kts | 115° |
| 2026-05-09 01:33 | 40.74475 | -84.42928 | 20416 ft | 453 kts | 115° |
| 2026-05-09 01:33 | 40.73285 | -84.39119 | 19862 ft | 447 kts | 115° |
| 2026-05-09 01:33 | 40.72105 | -84.35337 | 19331 ft | 445 kts | 115° |
| 2026-05-09 01:34 | 40.70941 | -84.31618 | 18809 ft | 444 kts | 114° |
| 2026-05-09 01:34 | 40.69766 | -84.27867 | 18289 ft | 442 kts | 114° |
| 2026-05-09 01:34 | 40.68594 | -84.24130 | 17712 ft | 440 kts | 114° |
| 2026-05-09 01:34 | 40.67421 | -84.20408 | 17132 ft | 438 kts | 115° |
| 2026-05-09 01:35 | 40.66259 | -84.16715 | 16561 ft | 436 kts | 114° |
| 2026-05-09 01:35 | 40.65112 | -84.13078 | 15999 ft | 425 kts | 115° |
| 2026-05-09 01:35 | 40.63986 | -84.09524 | 15450 ft | 419 kts | 115° |
| 2026-05-09 01:35 | 40.62859 | -84.05955 | 14901 ft | 421 kts | 115° |
| 2026-05-09 01:36 | 40.61734 | -84.02406 | 14433 ft | 418 kts | 115° |
| 2026-05-09 01:36 | 40.60624 | -83.98916 | 14188 ft | 409 kts | 115° |
| 2026-05-09 01:36 | 40.59546 | -83.95513 | 14075 ft | 399 kts | 115° |
| 2026-05-09 01:36 | 40.58444 | -83.92058 | 14028 ft | 416 kts | 115° |
| 2026-05-09 01:37 | 40.57336 | -83.88562 | 14006 ft | 413 kts | 115° |
| 2026-05-09 01:37 | 40.56227 | -83.85094 | 14004 ft | 410 kts | 115° |
| 2026-05-09 01:37 | 40.55126 | -83.81654 | 14010 ft | 407 kts | 115° |
| 2026-05-09 01:37 | 40.54022 | -83.78196 | 14009 ft | 414 kts | 115° |
| 2026-05-09 01:38 | 40.52896 | -83.74705 | 14013 ft | 411 kts | 115° |
| 2026-05-09 01:38 | 40.51788 | -83.71236 | 14010 ft | 415 kts | 115° |
| 2026-05-09 01:38 | 40.50673 | -83.67736 | 14008 ft | 414 kts | 115° |
| 2026-05-09 01:38 | 40.49554 | -83.64257 | 14011 ft | 412 kts | 115° |
| 2026-05-09 01:39 | 40.48440 | -83.60798 | 14004 ft | 410 kts | 115° |
| 2026-05-09 01:39 | 40.47283 | -83.57395 | 13994 ft | 406 kts | 122° |
| 2026-05-09 01:39 | 40.45576 | -83.54516 | 13995 ft | 398 kts | 134° |
| 2026-05-09 01:39 | 40.43959 | -83.51548 | 13998 ft | 401 kts | 126° |
| 2026-05-09 01:40 | 40.42491 | -83.48396 | 14005 ft | 407 kts | 123° |
| 2026-05-09 01:40 | 40.41102 | -83.45180 | 14007 ft | 412 kts | 121° |
| 2026-05-09 01:40 | 40.39692 | -83.41865 | 13669 ft | 419 kts | 122° |
| 2026-05-09 01:40 | 40.38202 | -83.38602 | 13138 ft | 415 kts | 125° |
| 2026-05-09 01:41 | 40.36647 | -83.35435 | 12644 ft | 411 kts | 126° |
| 2026-05-09 01:41 | 40.35100 | -83.32325 | 12152 ft | 402 kts | 126° |
| 2026-05-09 01:41 | 40.33613 | -83.29296 | 11666 ft | 389 kts | 126° |
| 2026-05-09 01:41 | 40.32165 | -83.26351 | 11182 ft | 381 kts | 127° |
| 2026-05-09 01:42 | 40.30481 | -83.23738 | 10750 ft | 371 kts | 142° |
| 2026-05-09 01:42 | 40.28537 | -83.21564 | 10408 ft | 363 kts | 147° |
| 2026-05-09 01:42 | 40.26543 | -83.19575 | 10065 ft | 358 kts | 149° |
| 2026-05-09 01:42 | 40.24585 | -83.17640 | 9714 ft | 343 kts | 149° |
| 2026-05-09 01:43 | 40.22741 | -83.15795 | 9325 ft | 326 kts | 149° |
| 2026-05-09 01:43 | 40.20985 | -83.14019 | 8924 ft | 311 kts | 149° |
| 2026-05-09 01:43 | 40.19482 | -83.12026 | 8545 ft | 307 kts | 133° |
| 2026-05-09 01:43 | 40.18309 | -83.09730 | 8182 ft | 300 kts | 127° |
| 2026-05-09 01:44 | 40.17224 | -83.07398 | 7814 ft | 300 kts | 127° |
| 2026-05-09 01:44 | 40.16128 | -83.05090 | 7456 ft | 297 kts | 128° |
| 2026-05-09 01:44 | 40.15030 | -83.02822 | 7104 ft | 294 kts | 129° |
| 2026-05-09 01:44 | 40.13911 | -83.00610 | 6760 ft | 289 kts | 130° |
| 2026-05-09 01:45 | 40.12795 | -82.98484 | 6415 ft | 284 kts | 131° |
| 2026-05-09 01:45 | 40.11677 | -82.96358 | 6170 ft | 275 kts | 131° |
| 2026-05-09 01:45 | 40.10608 | -82.94396 | 6076 ft | 262 kts | 133° |
| 2026-05-09 01:45 | 40.09502 | -82.92453 | 6035 ft | 281 kts | 132° |
| 2026-05-09 01:46 | 40.08731 | -82.90113 | 5975 ft | 286 kts | 106° |
| 2026-05-09 01:46 | 40.08531 | -82.87519 | 5598 ft | 287 kts | 97° |
| 2026-05-09 01:46 | 40.08754 | -82.84930 | 5207 ft | 290 kts | 71° |
| 2026-05-09 01:46 | 40.09443 | -82.82482 | 4823 ft | 285 kts | 82° |
| 2026-05-09 01:47 | 40.09457 | -82.79931 | 4452 ft | 280 kts | 96° |
| 2026-05-09 01:47 | 40.09322 | -82.77360 | 4211 ft | 284 kts | 97° |
| 2026-05-09 01:47 | 40.09145 | -82.74799 | 4104 ft | 282 kts | 98° |
| 2026-05-09 01:47 | 40.08955 | -82.72263 | 3753 ft | 279 kts | 98° |
| 2026-05-09 01:48 | 40.08747 | -82.69764 | 3404 ft | 275 kts | 98° |
| 2026-05-09 01:48 | 40.08531 | -82.67324 | 3174 ft | 274 kts | 98° |
| 2026-05-09 01:48 | 40.08042 | -82.64953 | 3057 ft | 269 kts | 123° |
| 2026-05-09 01:48 | 40.06723 | -82.63348 | 3015 ft | 256 kts | 159° |
| 2026-05-09 01:49 | 40.05024 | -82.62903 | 3016 ft | 245 kts | 179° |
| 2026-05-09 01:49 | 40.03371 | -82.62759 | 3005 ft | 232 kts | 181° |
| 2026-05-09 01:49 | 40.01796 | -82.62670 | 2984 ft | 222 kts | 184° |
| 2026-05-09 01:49 | 40.00404 | -82.63225 | 2974 ft | 206 kts | 223° |
| 2026-05-09 01:50 | 39.99737 | -82.64805 | 3012 ft | 200 kts | 253° |
| 2026-05-09 01:50 | 39.99383 | -82.66568 | 3013 ft | 206 kts | 257° |
| 2026-05-09 01:50 | 39.99209 | -82.68422 | 3017 ft | 201 kts | 265° |
| 2026-05-09 01:50 | 39.99197 | -82.70195 | 3068 ft | 184 kts | 270° |
| 2026-05-09 01:51 | 39.99255 | -82.71773 | 3066 ft | 166 kts | 271° |
| 2026-05-09 01:51 | 39.99330 | -82.73205 | 3017 ft | 151 kts | 271° |
| 2026-05-09 01:51 | 39.99423 | -82.74559 | 2748 ft | 146 kts | 273° |
| 2026-05-09 01:51 | 39.99494 | -82.75774 | 2652 ft | 135 kts | 271° |
| 2026-05-09 01:52 | 39.99553 | -82.76989 | 2539 ft | 132 kts | 271° |
| 2026-05-09 01:52 | 39.99593 | -82.78171 | 2297 ft | 130 kts | 270° |
| 2026-05-09 01:52 | 39.99636 | -82.79371 | 2075 ft | 131 kts | 273° |
| 2026-05-09 01:52 | 39.99724 | -82.80682 | 1921 ft | 156 kts | 274° |
| 2026-05-09 01:53 | 39.99817 | -82.81966 | 1728 ft | 136 kts | 275° |
| 2026-05-09 01:53 | 39.99900 | -82.83201 | 1529 ft | 140 kts | 274° |
| 2026-05-09 01:53 | 39.99959 | -82.84449 | 1435 ft | 131 kts | 273° |
| 2026-05-09 01:53 | 40.00006 | -82.85553 | 1162 ft | 126 kts | 273° |
| 2026-05-09 01:54 | 40.00084 | -82.86742 | 1019 ft | 136 kts | 275° |
| 2026-05-09 01:54 | 40.00158 | -82.87946 | 848 ft | 129 kts | 274° |
| 2026-05-09 01:54 | 40.00216 | -82.88935 | 822 ft | 91 kts | 275° |
| 2026-05-09 01:54 | 40.00260 | -82.89654 | 815 ft | 64 kts | 274° |
| 2026-05-09 01:55 | 40.00278 | -82.90010 | 822 ft | 32 kts | 275° |
| 2026-05-09 01:55 | 40.00293 | -82.90270 | 826 ft | 24 kts | 274° |
| 2026-05-09 01:55 | 40.00233 | -82.90404 | 825 ft | 13 kts | 193° |
| 2026-05-09 01:55 | 40.00213 | -82.90403 | 826 ft | 0 kts | 145° |
| 2026-05-09 01:56 | 40.00204 | -82.90379 | 820 ft | 8 kts | 102° |
| 2026-05-09 01:56 | 40.00196 | -82.90275 | 825 ft | 15 kts | 95° |
| 2026-05-09 01:57 | 40.00188 | -82.90099 | 822 ft | 21 kts | 94° |
| 2026-05-09 01:57 | 40.00179 | -82.89915 | 821 ft | 18 kts | 93° |
| 2026-05-09 01:57 | 40.00167 | -82.89725 | 818 ft | 24 kts | 96° |
| 2026-05-09 01:57 | 40.00154 | -82.89541 | 817 ft | 19 kts | 95° |
| 2026-05-09 01:58 | 40.00146 | -82.89354 | 814 ft | 15 kts | 96° |
| 2026-05-09 01:58 | 40.00136 | -82.89208 | 818 ft | 5 kts | 95° |
| 2026-05-09 01:58 | 40.00135 | -82.89192 | 818 ft | 7 kts | 95° |
| 2026-05-09 01:58 | 40.00128 | -82.89104 | 819 ft | 13 kts | 94° |
| 2026-05-09 01:59 | 40.00121 | -82.88955 | 820 ft | 20 kts | 94° |
| 2026-05-09 01:59 | 40.00111 | -82.88771 | 821 ft | 19 kts | 90° |
| 2026-05-09 01:59 | 40.00102 | -82.88589 | 823 ft | 16 kts | 92° |
| 2026-05-09 01:59 | 40.00096 | -82.88458 | 821 ft | 10 kts | 91° |
| 2026-05-09 02:00 | 40.00088 | -82.88329 | 820 ft | 15 kts | 105° |
| 2026-05-09 02:00 | 40.00006 | -82.88330 | 818 ft | 15 kts | 243° |
| 2026-05-09 02:00 | 39.99988 | -82.88425 | 816 ft | 15 kts | 247° |
| 2026-05-09 02:00 | 39.99980 | -82.88499 | 819 ft | 1 kts | 259° |
| 2026-05-09 02:01 | 39.99958 | -82.88521 | 819 ft | 0 kts | 201° |